San Miguel (591) Station Data

Red Flag Warning: No
Fire Weather Zone: 250
SDGE Region: Metro
Lat/Lon: 32.685/-116.98

Observations

Time Wind Speed/Gust Temp(F) RH Fuel Moist Fuel Temp(F) Dewpt(F) Tmax(F) Tmin(F) Accum Precip 10-min Precip SL Press(mb)
2/27 11:40pm 262 8 G 11 52° 98% - - 52° 56° 50.5° - - 1016.0
2/27 11:20pm 256 5 G 8 53° 97% - - 52° 56° 50.5° - - 1016.0
2/27 11:10pm 266 6 G 10 53° 97% - - 52° 56° 50.5° - - 1016.0
2/27 11:00pm 282 7 G 10 53° 97% - - 52° 56° 50.5° - - 1015.0
2/27 10:50pm 292 10 G 16 54° 96% - - 53° 56° 50.5° - - 1015.0
2/27 10:40pm 312 11 G 17 54° 95% - - 53° 56° 50.5° - - 1015.0
2/27 10:30pm 223 17 G 27 55° 94% - - 54° 56° 50.5° - - 1014.0
2/27 10:20pm 212 18 G 25 55° 93% - - 53° 56° 50.5° - - 1014.0
2/27 10:10pm 216 17 G 23 55° 94% - - 53° 56° 50.5° - - 1015.0
2/27 10:00pm 218 16 G 25 55° 94% - - 53° 56° 50.5° - - 1015.0
2/27 9:50pm 218 15 G 22 55° 94% - - 53° 56° 50.5° - - 1015.0
2/27 9:40pm 213 15 G 22 55° 94% - - 53° 56° 50.5° - - 1015.0
2/27 9:30pm 215 17 G 22 55° 93% - - 53° 56° 50.5° - - 1015.0
2/27 9:20pm 216 18 G 29 55° 92% - - 53° 56° 50.5° - - 1015.0
2/27 9:10pm 206 16 G 22 55° 92% - - 53° 56° 50.5° - - 1014.0
2/27 9:00pm 204 16 G 21 55° 91% - - 53° 56° 50.5° - - 1014.0
2/27 8:50pm 203 18 G 24 55° 91% - - 53° 56° 50.5° - - 1014.0
2/27 8:40pm 201 18 G 24 55° 92% - - 53° 56° 50.5° - - 1014.0
2/27 8:30pm 196 18 G 24 55° 92% - - 53° 56° 50.5° - - 1014.0
2/27 8:20pm 198 16 G 22 55° 93% - - 53° 56° 50.5° - - 1014.0
2/27 8:10pm 209 16 G 21 55° 93% - - 53° 56° 50.5° - - 1015.0
2/27 8:00pm 201 17 G 21 55° 93% - - 53° 56° 50.5° - - 1014.0
2/27 7:50pm 202 18 G 23 55° 94% - - 53° 56° 50.5° - - 1014.0
2/27 7:40pm 208 18 G 26 55° 94% - - 53° 56° 50.5° - - 1014.0
2/27 7:30pm 208 18 G 25 55° 93% - - 53° 56° 50.5° - - 1014.0
2/27 7:20pm 201 20 G 28 55° 93% - - 53° 56° 50.5° - - 1014.0
2/27 7:10pm 198 20 G 28 55° 94% - - 53° 56° 50.5° - - 1014.0
2/27 7:00pm 196 20 G 25 55° 94% - - 53° 56° 50.5° - - 1014.0
2/27 6:50pm 197 19 G 25 55° 94% - - 53° 56° 50.5° - - 1014.0
2/27 6:40pm 191 19 G 24 55° 95% - - 53° 56° 50.5° - - 1014.0
2/27 6:30pm 195 19 G 27 55° 95% - - 53° 56° 50.5° - - 1014.0
2/27 6:20pm 198 16 G 23 55° 95% - - 53° 56° 50.5° - - 1014.0
2/27 6:10pm 209 12 G 17 55° 95% - - 54° 56° 50.5° - - 1014.0
2/27 6:00pm 204 13 G 17 55° 95% - - 54° 56° 50.5° - - 1014.0
2/27 5:50pm 205 13 G 17 55° 94% - - 54° 56° 50.5° - - 1014.0
2/27 5:40pm 207 14 G 19 55° 93% - - 54° 56° 50.5° - - 1014.0
2/27 5:30pm 201 14 G 21 55° 94% - - 54° 56° 50.5° - - 1014.0
2/27 5:20pm 198 13 G 17 55° 94% - - 54° 56° 50.5° - - 1014.0
2/27 5:10pm 200 13 G 19 55° 94% - - 54° 56° 50.5° - - 1015.0
2/27 5:00pm 212 14 G 18 55° 94% - - 54° 56° 50.5° - - 1015.0
2/27 4:50pm 201 14 G 20 56° 95% - - 54° 56° 50.5° - - 1015.0
2/27 4:40pm 201 13 G 17 55° 95% - - 54° 56° 50.5° - - 1015.0
2/27 4:30pm 204 13 G 16 55° 95% - - 54° 56° 50.5° - - 1014.0
2/27 4:20pm 207 13 G 18 55° 95% - - 54° 56° 50.5° - - 1015.0
2/27 4:10pm 201 16 G 21 55° 95% - - 54° 56° 50.5° - - 1015.0
2/27 4:00pm 198 17 G 23 56° 95% - - 54° 56° 50.5° - - 1015.0
2/27 3:50pm 201 16 G 22 56° 95% - - 54° 56° 50.5° - - 1014.0
2/27 3:40pm 199 18 G 27 56° 95% - - 54° 56° 50.5° - - 1014.0
2/27 3:30pm 192 20 G 27 56° 95% - - 54° 56° 50.5° - - 1014.0
2/27 3:20pm 197 18 G 24 56° 95% - - 54° 56° 50.5° - - 1014.0
2/27 3:10pm 194 19 G 25 55° 96% - - 54° 56° 50.5° - - 1015.0
2/27 3:00pm 201 16 G 22 55° 96% - - 54° 56° 50.5° - - 1015.0
2/27 2:50pm 211 14 G 18 55° 96% - - 54° 56° 50.5° - - 1015.0
2/27 2:40pm 209 14 G 20 55° 96% - - 54° 56° 50.5° - - 1015.0
2/27 2:30pm 209 17 G 22 55° 95% - - 54° 56° 50.5° - - 1015.0
2/27 2:20pm 210 17 G 26 55° 95% - - 54° 56° 50.5° - - 1015.0
2/27 2:10pm 214 17 G 21 55° 95% - - 54° 56° 50.5° - - 1016.0
2/27 2:00pm 218 19 G 27 55° 95% - - 53° 56° 50.5° - - 1016.0
2/27 1:50pm 214 19 G 27 54° 95% - - 53° 56° 50.5° - - 1015.0
2/27 1:40pm 210 19 G 27 54° 95% - - 53° 56° 50.5° - - 1016.0
2/27 1:30pm 207 22 G 31 55° 96% - - 54° 56° 50.5° - - 1015.0
2/27 1:20pm 211 18 G 26 55° 97% - - 54° 56° 50.5° - - 1016.0
2/27 1:10pm 209 20 G 29 55° 97% - - 54° 56° 50.5° - - 1016.0
2/27 1:00pm 208 21 G 29 55° 97% - - 54° 56° 50.5° - - 1016.0
2/27 12:50pm 201 22 G 32 54° 97% - - 54° 56° 50.5° - - 1016.0
2/27 12:40pm 203 21 G 28 54° 97% - - 53° 56° 50.5° - - 1016.0
2/27 12:30pm 209 20 G 29 54° 96% - - 53° 56° 50.5° - - 1016.0
2/27 12:20pm 214 21 G 27 54° 96% - - 53° 56° 50.5° - - 1016.0
2/27 12:10pm 215 26 G 38 54° 95% - - 53° 56° 50.5° - - 1015.0
2/27 12:00pm 214 27 G 36 55° 95% - - 53° 56° 50.5° - - 1022.0
2/27 11:50am 209 23 G 31 55° 95% - - 54° 56° 50.5° - - 1014.0
2/27 11:40am 215 23 G 32 55° 94% - - 53° 56° 50.5° - - 1014.0
2/27 11:30am 210 21 G 31 55° 94% - - 53° 56° 50.5° - - 1015.0
2/27 11:20am 206 24 G 31 55° 94% - - 53° 56° 50.5° - - 1015.0
2/27 11:10am 208 20 G 27 55° 94% - - 53° 56° 50.5° - - 1015.0
2/27 11:00am 206 21 G 26 55° 94% - - 53° 56° 50.5° - - 1015.0
2/27 10:50am 214 22 G 29 55° 94% - - 53° 56° 50.5° - - 1015.0
2/27 10:40am 210 20 G 32 55° 96% - - 54° 56° 50.5° - - 1016.0
2/27 10:30am 212 17 G 26 55° 96% - - 54° 56° 50.5° - - 1016.0
2/27 10:20am 222 14 G 20 55° 96% - - 54° 56° 50.5° - - 1016.0
2/27 10:10am 227 15 G 23 55° 96% - - 54° 56° 50.5° - - 1016.0
2/27 10:00am 220 19 G 29 55° 96% - - 54° 56° 50.5° - - 1016.0
2/27 9:50am 219 15 G 23 55° 96% - - 54° 56° 50.5° - - 1016.0
2/27 9:40am 224 16 G 23 56° 96% - - 54° 56° 50.5° - - 1016.0
2/27 9:30am 217 18 G 24 56° 96% - - 54° 56° 50.5° - - 1016.0
2/27 9:20am 217 17 G 25 56° 96% - - 54° 56° 50.5° - - 1016.0
2/27 9:10am 220 15 G 21 56° 95% - - 54° 56° 50.5° - - 1016.0
2/27 9:00am 219 12 G 16 56° 95% - - 54° 56° 50.5° - - 1015.0
2/27 8:50am 218 13 G 22 56° 96% - - 54° 55.9° 50.5° - - 1015.0
2/27 8:40am 204 15 G 19 55° 96% - - 54° 55.7° 50.5° - - 1015.0
2/27 8:30am 199 16 G 20 55° 97% - - 54° 55.5° 50.5° - - 1015.0
2/27 8:20am 205 15 G 23 55° 97% - - 54° 55.5° 50.5° - - 1015.0
2/27 8:10am 207 16 G 21 55° 97% - - 54° 55.5° 50.5° - - 1015.0
2/27 8:00am 203 16 G 20 55° 96% - - 54° 55.5° 50.5° - - 1015.0
2/27 7:50am 207 16 G 22 55° 97% - - 54° 55.5° 50.5° - - 1015.0
2/27 7:40am 205 16 G 21 55° 97% - - 54° 55.5° 50.5° - - 1015.0
2/27 7:30am 204 15 G 22 55° 96% - - 54° 55.5° 50.5° - - 1015.0
2/27 7:20am 211 16 G 22 55° 96% - - 54° 55.5° 50.5° - - 1015.0
2/27 7:10am 200 16 G 21 55° 96% - - 54° 55.5° 50.5° - - 1015.0
2/27 7:00am 203 16 G 23 55° 96% - - 54° 55.5° 50.5° - - 1015.0
2/27 6:50am 204 14 G 19 55° 96% - - 54° 55.5° 50.5° - - 1015.0
2/27 6:40am 206 15 G 21 55° 96% - - 54° 55.5° 50.5° - - 1015.0
2/27 6:30am 201 17 G 21 55° 97% - - 54° 55.5° 50.5° - - 1015.0
2/27 6:20am 202 18 G 23 55° 97% - - 54° 55.5° 50.5° - - 1014.0
2/27 6:10am 202 18 G 25 55° 97% - - 54° 55.5° 50.5° - - 1014.0
2/27 6:00am 206 17 G 26 55° 97% - - 55° 55.5° 50.5° - - 1014.0
2/27 5:50am 214 18 G 25 55° 97% - - 54° 55.5° 50.5° - - 1014.0
2/27 5:40am 210 18 G 25 55° 97% - - 54° 55.4° 50.5° - - 1014.0
2/27 5:30am 207 17 G 25 55° 97% - - 54° 55.4° 50.5° - - 1014.0
2/27 5:20am 202 16 G 20 55° 97% - - 54° 55.2° 50.5° - - 1014.0
2/27 5:10am 200 17 G 21 55° 97% - - 54° 55° 50.5° - - 1014.0
2/27 5:00am 194 16 G 23 55° 97% - - 54° 54.8° 50.5° - - 1014.0
2/27 4:50am 195 17 G 21 54° 97% - - 54° 54.6° 50.5° - - 1014.0
2/27 4:40am 193 18 G 24 54° 96% - - 53° 54.5° 50.5° - - 1014.0
2/27 4:30am 189 19 G 24 54° 96% - - 53° 54.5° 50.5° - - 1025.0
2/27 4:20am 186 18 G 24 54° 96% - - 53° 54.5° 50.5° - - 1016.0
2/27 4:10am 187 18 G 22 54° 96% - - 53° 54.5° 50.5° - - 1014.0
2/27 4:00am 185 18 G 23 54° 95% - - 53° 54.3° 50.5° - - 1013.0
2/27 3:50am 186 16 G 24 54° 95% - - 53° 54.3° 50.5° - - 1013.0
2/27 3:40am 179 15 G 19 54° 96% - - 53° 54.3° 50.5° - - 1013.0
2/27 3:30am 174 13 G 18 54° 97% - - 53° 54.2° 50.5° - - 1014.0
2/27 3:20am 178 8 G 13 53° 98% - - 53° 53.7° 50.5° - - 1014.0
2/27 3:10am 196 3 G 9 52° 97% - - 52° 52.9° 50.5° - - 1014.0
2/27 3:00am 271 1 G 3 52° 97% - - 51° 52.3° 50.5° - - 1014.0
2/27 2:50am 260 2 G 3 52° 97% - - 51° 52° 50.5° - - 1014.0
2/27 2:40am 300 2 G 3 52° 97% - - 51° 52° 50.5° - - 1015.0
2/27 2:30am 2 2 G 6 52° 97% - - 51° 51.8° 50.5° - - 1015.0
2/27 2:20am 51 2 G 5 51° 97% - - 51° 51.7° 50.5° - - 1015.0
2/27 2:10am 55 5 G 7 51° 97% - - 50° 51.6° 50.5° - - 1015.0
2/27 2:00am 64 6 G 8 51° 97% - - 50° 51.6° 50.5° - - 1015.0
2/27 1:50am 61 4 G 7 51° 97% - - 50° 51.6° 50.5° - - 1015.0
2/27 1:40am 53 4 G 6 51° 97% - - 50° 51.6° 50.5° - - 1016.0
2/27 1:30am 36 4 G 8 51° 97% - - 50° 51.6° 50.5° - - 1016.0
2/27 1:20am 34 5 G 7 51° 97% - - 50° 51.6° 50.5° - - 1016.0
2/27 1:10am 33 5 G 6 51° 96% - - 50° 51.6° 50.5° - - 1016.0
2/27 1:00am 35 4 G 6 51° 96% - - 50° 51.6° 50.6° - - 1016.0
2/27 12:50am 30 2 G 5 51° 95% - - 50° 51.6° 50.8° - - 1016.0
2/27 12:40am 0 1 G 2 51° 95% - - 50° 51.6° 50.9° - - 1017.0
2/27 12:30am 2 1 G 1 51° 95% - - 50° 51.6° 51° - - 1017.0
2/27 12:20am 150 2 G 5 51° 95% - - 50° 51.6° 51.1° - - 1017.0
2/27 12:10am 158 5 G 6 51° 95% - - 50° 51.5° 51.1° - - 1017.0
2/27 12:00am 162 5 G 7 51° 96% - - 50° 57.4° 48.5° - - 1017.0
2/26 11:50pm 189 3 G 6 51° 96% - - 50° 57.4° 48.5° - - 1017.0
2/26 11:40pm 207 4 G 6 51° 96% - - 50° 57.4° 48.5° - - 1017.0
2/26 11:30pm 193 3 G 4 51° 95% - - 50° 57.4° 48.5° - - 1017.0
2/26 11:20pm 171 3 G 5 51° 95% - - 50° 57.4° 48.5° - - 1017.0
2/26 11:10pm 198 1 G 3 51° 94% - - 50° 57.4° 48.5° - - 1017.0
2/26 11:00pm 230 3 G 4 51° 93% - - 49° 57.4° 48.5° - - 1017.0
2/26 10:50pm 202 4 G 7 51° 92% - - 49° 57.4° 48.5° - - 1017.0
2/26 10:40pm 205 5 G 7 52° 92% - - 50° 57.4° 48.5° - - 1017.0
2/26 10:30pm 190 4 G 4 52° 91% - - 50° 57.4° 48.5° - - 1017.0
2/26 10:20pm 182 4 G 5 52° 91% - - 50° 57.4° 48.5° - - 1017.0
2/26 10:10pm 187 4 G 5 52° 91% - - 50° 57.4° 48.5° - - 1017.0
2/26 10:00pm 178 3 G 5 52° 91% - - 50° 57.4° 48.5° - - 1017.0
2/26 9:50pm 180 3 G 5 52° 92% - - 50° 57.4° 48.5° - - 1017.0
2/26 9:40pm 182 5 G 7 52° 92% - - 50° 57.4° 48.5° - - 1017.0
2/26 9:30pm 194 4 G 6 52° 92% - - 49° 57.4° 48.5° - - 1017.0
2/26 9:20pm 187 4 G 5 52° 92% - - 49° 57.4° 48.5° - - 1017.0
2/26 9:10pm 189 4 G 5 52° 91% - - 50° 57.4° 48.5° - - 1017.0
2/26 9:00pm 215 5 G 7 52° 91% - - 50° 57.4° 48.5° - - 1017.0
2/26 8:50pm 220 6 G 8 52° 91% - - 50° 57.4° 48.5° - - 1018.0
2/26 8:40pm 199 6 G 8 52° 91% - - 50° 57.4° 48.5° - - 1017.0
2/26 8:30pm 187 5 G 6 52° 92% - - 50° 57.4° 48.5° - - 1017.0
2/26 8:20pm 175 3 G 4 51° 92% - - 49° 57.4° 48.5° - - 1018.0
2/26 8:10pm 191 4 G 6 51° 92% - - 49° 57.4° 48.5° - - 1018.0
2/26 8:00pm 192 4 G 5 51° 92% - - 49° 57.4° 48.5° - - 1017.0
2/26 7:50pm 200 4 G 6 52° 91% - - 49° 57.4° 48.5° - - 1017.0
2/26 7:40pm 217 4 G 5 52° 90% - - 49° 57.4° 48.5° - - 1017.0
2/26 7:30pm 210 4 G 6 52° 89% - - 49° 57.4° 48.5° - - 1017.0
2/26 7:20pm 212 3 G 5 52° 85% - - 47° 57.4° 48.5° - - 1017.0
2/26 7:10pm 209 4 G 5 52° 83% - - 47° 57.4° 48.5° - - 1017.0
2/26 7:00pm 207 4 G 5 52° 81% - - 47° 57.4° 48.5° - - 1017.0
2/26 6:50pm 210 5 G 6 52° 80% - - 47° 57.4° 48.5° - - 1017.0
2/26 6:40pm 208 5 G 8 53° 79% - - 46° 57.4° 48.5° - - 1017.0
2/26 6:30pm 221 6 G 8 53° 78% - - 46° 57.4° 48.5° - - 1017.0
2/26 6:20pm 227 7 G 10 53° 77% - - 46° 57.4° 48.5° - - 1017.0
2/26 6:10pm 237 8 G 12 53° 77% - - 46° 57.4° 48.5° - - 1017.0
2/26 6:00pm 230 10 G 13 54° 77% - - 47° 57.4° 48.5° - - 1017.0
2/26 5:50pm 231 11 G 17 54° 76% - - 47° 57.4° 48.5° - - 1017.0
2/26 5:40pm 236 10 G 15 54° 74% - - 46° 57.4° 48.5° - - 1017.0
2/26 5:30pm 242 10 G 14 55° 72% - - 46° 57.4° 48.5° - - 1017.0
2/26 5:20pm 227 10 G 15 55° 73% - - 46° 57.4° 48.5° - - 1017.0
2/26 5:10pm 228 11 G 15 55° 71% - - 46° 57.4° 48.5° - - 1016.0
2/26 5:00pm 241 12 G 17 55° 69% - - 45° 57.4° 48.5° - - 1016.0